createdAt,value
2019-03-12T00:54:54.797Z,99.90
2019-03-12T00:57:23.338Z,99.90
2019-03-12T05:49:12.064Z,99.90
2019-03-12T05:56:37.101Z,99.90
2019-03-12T08:49:28.578Z,99.90
2019-03-12T08:51:58.766Z,99.90
2019-03-12T10:01:30.707Z,99.90
2019-03-12T10:04:00.966Z,99.90
2019-03-12T10:16:48.134Z,99.90
2019-03-12T10:19:24.041Z,99.90
2019-03-12T10:21:56.990Z,99.90
2019-03-12T10:24:35.646Z,99.90
2019-03-12T10:27:22.334Z,99.90
2019-03-12T10:29:52.514Z,99.90
2019-03-12T10:32:22.727Z,99.90
2019-03-12T10:34:52.914Z,99.90
2019-03-12T10:40:09.485Z,99.90
2019-03-12T10:42:53.653Z,99.90
2019-03-12T10:45:33.093Z,99.80
2019-03-12T10:48:03.319Z,99.20
2019-03-12T10:55:28.322Z,99.40
2019-03-12T10:57:56.895Z,99.80
2019-03-12T11:00:25.443Z,99.60
2019-03-12T11:02:54.017Z,99.90
2019-03-12T11:05:22.894Z,99.90
2019-03-12T11:07:51.609Z,99.90
2019-03-12T11:12:48.597Z,99.80
2019-03-12T11:15:17.481Z,99.90
2019-03-12T11:17:50.094Z,99.30
2019-03-12T11:20:24.194Z,99.80
2019-03-12T11:22:54.448Z,96.50
2019-03-12T11:25:27.651Z,99.20
2019-03-12T11:32:49.753Z,99.90
2019-03-12T11:37:46.546Z,98.50
2019-03-12T11:40:23.566Z,97.90
2019-03-12T11:42:52.246Z,97.50
2019-03-12T11:45:34.793Z,95.40
2019-03-12T11:50:21.207Z,97.80
2019-03-12T11:57:48.488Z,98.10
2019-03-12T12:00:24.040Z,97.00
2019-03-12T12:02:59.715Z,97.10
2019-03-12T12:07:51.231Z,96.40
2019-03-12T12:10:19.919Z,96.80
2019-03-12T12:12:48.534Z,97.60
2019-03-12T12:15:17.350Z,97.20
2019-03-12T12:17:49.030Z,97.70
2019-03-12T12:20:28.947Z,97.50
2019-03-12T12:22:46.826Z,96.40
2019-03-12T12:25:19.961Z,96.90
2019-03-12T12:27:48.526Z,96.80
2019-03-12T12:30:19.884Z,96.50
2019-03-12T12:32:48.498Z,96.60
2019-03-12T12:35:17.205Z,96.80
2019-03-12T12:37:45.825Z,95.70
2019-03-12T12:40:21.641Z,95.20
2019-03-12T12:42:50.417Z,95.80
2019-03-12T12:47:48.882Z,95.90
2019-03-12T12:50:17.899Z,95.90
2019-03-12T12:52:46.441Z,94.60
2019-03-12T12:58:15.982Z,92.90
2019-03-12T13:00:49.320Z,93.50
2019-03-12T13:08:44.444Z,94.30
2019-03-12T13:11:13.017Z,95.20
2019-03-12T13:13:41.565Z,95.10
2019-03-12T13:16:10.138Z,94.10
2019-03-12T13:18:38.683Z,93.80
2019-03-12T13:23:36.295Z,93.70
2019-03-12T13:26:05.018Z,94.40
2019-03-12T13:28:33.564Z,93.90
2019-03-12T13:31:02.207Z,94.30
2019-03-12T13:33:30.749Z,94.70
2019-03-12T13:35:59.393Z,94.70
2019-03-12T13:38:27.933Z,89.60
2019-03-12T13:40:56.669Z,94.10
2019-03-12T13:43:25.293Z,93.70
2019-03-12T13:48:39.851Z,93.50
2019-03-12T13:51:11.622Z,93.40
2019-03-12T13:53:51.629Z,93.20
2019-03-12T13:56:23.442Z,92.30
2019-03-12T13:58:55.273Z,93.40
2019-03-12T14:01:25.329Z,94.10
2019-03-12T14:03:53.925Z,77.80
2019-03-12T14:06:24.098Z,93.40
2019-03-12T14:08:52.667Z,92.60
2019-03-12T14:11:21.213Z,70.80
2019-03-12T14:16:18.034Z,92.60
2019-03-12T14:21:14.962Z,93.00
2019-03-12T14:23:49.523Z,93.40
2019-03-12T14:26:18.210Z,93.00
2019-03-12T14:28:46.861Z,93.00
2019-03-12T14:31:15.578Z,93.00
2019-03-12T14:33:44.186Z,92.70
2019-03-12T14:36:33.448Z,93.00
2019-03-12T14:39:20.143Z,92.30
2019-03-12T14:41:49.775Z,92.10
2019-03-12T14:44:22.783Z,92.80
2019-03-12T14:46:52.915Z,80.90
2019-03-12T14:49:21.506Z,91.50
2019-03-12T14:54:31.765Z,91.40
2019-03-12T14:59:28.627Z,92.10
2019-03-12T15:01:57.270Z,92.10
2019-03-12T15:04:25.809Z,91.50
2019-03-12T15:06:54.457Z,91.60
2019-03-12T15:09:23.077Z,91.70
2019-03-12T15:11:51.616Z,87.20
2019-03-12T15:17:04.419Z,91.80
2019-03-12T15:19:32.929Z,91.30
2019-03-12T15:22:01.547Z,92.30
2019-03-12T15:24:30.189Z,92.20
2019-03-12T15:26:58.730Z,92.20
2019-03-12T15:29:27.301Z,92.40
2019-03-12T15:32:04.142Z,92.10
2019-03-12T15:34:26.077Z,92.60
2019-03-12T15:36:54.676Z,92.70
2019-03-12T15:39:23.249Z,92.40
2019-03-12T15:41:51.789Z,92.10
2019-03-12T15:44:20.496Z,92.30
2019-03-12T15:46:49.111Z,92.50
2019-03-12T15:49:17.681Z,92.80
2019-03-12T15:51:46.227Z,93.40
2019-03-12T15:54:14.793Z,93.20
2019-03-12T15:56:43.338Z,93.40
2019-03-12T15:59:11.915Z,93.70
2019-03-12T16:01:40.457Z,93.50
2019-03-12T16:09:32.085Z,94.00
2019-03-12T16:12:03.362Z,93.80
2019-03-12T16:17:04.498Z,93.80
2019-03-12T16:22:01.294Z,94.20
2019-03-12T16:24:29.861Z,94.10
2019-03-12T16:26:58.406Z,94.40
2019-03-12T16:29:26.981Z,94.10
2019-03-12T16:34:23.770Z,94.50
2019-03-12T16:36:52.321Z,94.80
2019-03-12T16:39:20.896Z,94.70
2019-03-12T16:41:49.441Z,94.60
2019-03-12T16:44:18.015Z,95.50
2019-03-12T16:46:46.570Z,95.30
2019-03-12T16:51:43.357Z,95.20
2019-03-12T16:56:45.328Z,96.00
2019-03-12T16:59:10.385Z,96.10
2019-03-12T17:01:38.947Z,96.30
2019-03-12T17:06:41.923Z,96.30
2019-03-12T17:09:10.796Z,96.60
2019-03-12T17:11:39.362Z,95.70
2019-03-12T17:14:08.083Z,95.80
2019-03-12T17:16:36.674Z,96.30
2019-03-12T17:21:33.489Z,96.90
2019-03-12T17:24:04.705Z,90.30
2019-03-12T17:26:33.342Z,96.80
2019-03-12T17:31:30.197Z,97.20
2019-03-12T17:33:58.741Z,97.60
2019-03-12T17:36:28.657Z,97.70
2019-03-12T17:38:57.363Z,97.70
2019-03-12T17:41:25.937Z,97.90
2019-03-12T17:43:57.577Z,97.80
2019-03-12T17:46:24.717Z,97.80
2019-03-12T17:48:53.261Z,98.00
2019-03-12T17:56:18.372Z,97.90
2019-03-12T17:58:46.977Z,98.10
2019-03-12T18:01:15.549Z,98.00
2019-03-12T18:03:44.172Z,97.90
2019-03-12T18:06:12.740Z,98.20
2019-03-12T18:08:41.289Z,98.50
2019-03-12T18:11:09.850Z,98.30
2019-03-12T18:13:38.398Z,98.80
2019-03-12T18:16:07.114Z,99.10
2019-03-12T18:18:35.661Z,98.70
2019-03-12T18:21:04.235Z,99.20
2019-03-12T18:23:33.075Z,94.70
2019-03-12T18:26:02.773Z,98.80
2019-03-12T18:28:31.317Z,99.20
2019-03-12T18:33:28.118Z,99.30
2019-03-12T18:35:56.689Z,99.00
2019-03-12T18:38:25.238Z,99.40
2019-03-12T18:40:53.811Z,99.30
2019-03-12T18:45:50.565Z,99.50
2019-03-12T18:48:19.141Z,99.60
2019-03-12T18:50:47.690Z,99.30
2019-03-12T18:53:16.262Z,99.80
2019-03-12T18:55:46.346Z,99.40
2019-03-12T18:58:14.989Z,99.90
2019-03-12T19:00:48.701Z,99.60
2019-03-12T19:03:16.597Z,99.90
2019-03-12T19:05:45.157Z,99.90
2019-03-12T19:10:42.150Z,99.90
2019-03-12T19:13:10.867Z,99.90
2019-03-12T19:15:39.409Z,99.90
2019-03-12T19:18:07.977Z,99.90
2019-03-12T19:20:36.521Z,99.90
2019-03-12T19:23:05.237Z,99.80
2019-03-12T19:28:12.720Z,99.90
2019-03-12T19:30:41.374Z,99.90
2019-03-12T19:33:11.662Z,99.90
2019-03-12T19:35:40.214Z,99.90
2019-03-12T19:38:08.935Z,99.90
2019-03-12T19:40:51.990Z,99.90
2019-03-12T19:43:20.640Z,99.90
2019-03-12T19:45:49.237Z,99.90
2019-03-12T19:48:17.974Z,99.90
2019-03-12T19:50:46.517Z,99.90
2019-03-12T20:00:41.698Z,99.90
2019-03-12T20:03:14.732Z,99.90
2019-03-12T20:05:40.657Z,99.90
2019-03-12T20:08:09.232Z,99.90
2019-03-12T20:11:12.610Z,99.90
2019-03-12T20:13:58.858Z,99.90
2019-03-12T20:17:08.406Z,99.90
2019-03-12T20:19:47.850Z,99.90
2019-03-12T20:22:36.259Z,99.90
2019-03-12T20:25:42.767Z,99.90
2019-03-12T20:28:32.792Z,99.90
2019-03-12T20:31:27.258Z,99.90
2019-03-12T20:34:33.929Z,99.90
2019-03-12T20:37:39.220Z,99.90
2019-03-12T20:40:28.930Z,99.90
2019-03-12T20:43:20.040Z,99.90
2019-03-12T20:46:17.507Z,99.90
2019-03-12T20:49:11.938Z,99.90
2019-03-12T20:55:01.482Z,99.90
2019-03-12T20:57:47.635Z,99.90
2019-03-12T21:00:37.070Z,99.90
2019-03-12T21:03:26.850Z,99.90
2019-03-12T21:06:32.127Z,99.90
2019-03-12T21:09:20.395Z,99.90
2019-03-12T21:12:08.407Z,99.90
2019-03-12T21:15:13.524Z,99.90
2019-03-12T21:20:42.098Z,99.90
2019-03-12T21:23:13.733Z,99.90
2019-03-12T21:26:08.041Z,91.20
2019-03-12T21:28:59.460Z,99.90
2019-03-12T21:31:28.040Z,99.90
2019-03-12T21:33:56.618Z,99.90
2019-03-12T21:36:26.435Z,99.90
2019-03-12T21:38:55.010Z,99.90
2019-03-12T21:41:23.662Z,99.90
2019-03-12T21:46:20.518Z,99.90
2019-03-12T21:48:49.144Z,99.90
2019-03-12T21:51:17.717Z,99.90
2019-03-12T21:53:46.253Z,99.90
2019-03-12T21:56:14.833Z,99.90
2019-03-12T21:58:43.377Z,99.90
2019-03-12T22:03:40.158Z,99.90
2019-03-12T22:06:08.726Z,99.90
2019-03-12T22:08:37.274Z,99.90
2019-03-12T22:11:05.848Z,99.90
2019-03-12T22:13:34.394Z,99.90
2019-03-12T22:16:02.970Z,99.90
2019-03-12T22:18:31.580Z,99.90
2019-03-12T22:21:00.157Z,99.90
2019-03-12T22:23:30.334Z,99.90
2019-03-12T22:25:58.906Z,99.90
2019-03-12T22:28:27.444Z,99.90
2019-03-12T22:38:20.763Z,99.90
2019-03-12T22:40:49.337Z,99.90
2019-03-12T22:43:17.881Z,99.90
2019-03-12T22:45:46.519Z,99.90
2019-03-12T22:55:39.737Z,99.90
2019-03-12T22:58:08.382Z,99.90
2019-03-12T23:00:38.194Z,99.90
2019-03-12T23:03:06.902Z,99.90
2019-03-12T23:05:35.446Z,99.90
2019-03-12T23:10:32.545Z,99.90
2019-03-12T23:13:01.109Z,99.90
2019-03-12T23:15:29.993Z,99.90
2019-03-12T23:17:58.635Z,99.90
2019-03-12T23:20:27.170Z,99.90
2019-03-12T23:22:56.213Z,99.90
2019-03-12T23:25:24.757Z,99.90
2019-03-12T23:30:23.357Z,99.90
2019-03-12T23:32:52.668Z,99.90
2019-03-12T23:35:21.279Z,99.90
2019-03-12T23:37:49.992Z,99.90
2019-03-12T23:40:19.266Z,99.90
2019-03-12T23:42:47.917Z,99.90
2019-03-12T23:45:17.188Z,99.90
2019-03-12T23:47:46.211Z,99.90
2019-03-12T23:50:16.561Z,99.90
